createdAt,value
2019-04-20T00:01:58.131Z,36.13
2019-04-20T00:04:32.007Z,35.91
2019-04-20T00:07:01.830Z,36.01
2019-04-20T00:09:37.126Z,36.67
2019-04-20T00:12:16.983Z,36.30
2019-04-20T00:14:42.490Z,36.48
2019-04-20T00:17:15.876Z,36.39
2019-04-20T00:19:53.761Z,36.22
2019-04-20T00:22:34.386Z,36.25
2019-04-20T00:25:20.919Z,36.19
2019-04-20T00:28:19.908Z,36.22
2019-04-20T00:30:54.275Z,36.07
2019-04-20T00:33:27.099Z,36.30
2019-04-20T00:35:44.323Z,36.22
2019-04-20T00:38:16.375Z,38.07
2019-04-20T00:40:49.686Z,37.42
2019-04-20T00:43:28.240Z,37.13
2019-04-20T00:46:01.981Z,37.41
2019-04-20T00:48:37.561Z,37.26
2019-04-20T00:51:24.987Z,37.15
2019-04-20T00:53:41.454Z,37.42
2019-04-20T00:56:11.925Z,39.57
2019-04-20T00:58:58.238Z,38.81
2019-04-20T01:01:38.836Z,40.25
2019-04-20T01:04:10.767Z,39.82
2019-04-20T01:07:01.663Z,39.76
2019-04-20T01:09:43.162Z,40.48
2019-04-20T01:12:21.563Z,40.27
2019-04-20T01:14:56.871Z,41.83
2019-04-20T01:17:23.378Z,41.97
2019-04-20T01:19:55.581Z,43.21
2019-04-20T01:22:30.004Z,43.48
2019-04-20T01:25:09.925Z,43.47
2019-04-20T01:27:52.339Z,43.79
2019-04-20T01:30:20.097Z,42.73
2019-04-20T01:33:06.225Z,42.64
2019-04-20T01:35:44.106Z,42.60
2019-04-20T01:38:16.704Z,42.10
2019-04-20T01:40:25.404Z,41.87
2019-04-20T01:42:57.758Z,41.86
2019-04-20T01:45:35.738Z,41.69
2019-04-20T01:48:05.157Z,41.99
2019-04-20T01:50:43.844Z,41.98
2019-04-20T01:53:23.615Z,41.95
2019-04-20T01:56:05.428Z,42.07
2019-04-20T01:58:58.505Z,42.04
2019-04-20T02:01:28.116Z,42.06
2019-04-20T02:04:06.797Z,42.22
2019-04-20T02:06:43.409Z,42.67
2019-04-20T02:09:18.677Z,42.88
2019-04-20T02:11:48.771Z,42.88
2019-04-20T02:14:29.555Z,43.05
2019-04-20T02:17:05.418Z,43.12
2019-04-20T02:19:43.242Z,43.39
2019-04-20T02:22:13.575Z,43.45
2019-04-20T02:24:37.011Z,43.39
2019-04-20T02:27:10.258Z,43.47
2019-04-20T02:30:07.717Z,43.95
2019-04-20T02:33:13.930Z,43.97
2019-04-20T02:35:34.389Z,44.07
2019-04-20T02:38:10.482Z,44.16
2019-04-20T02:43:15.313Z,44.45
2019-04-20T02:45:49.077Z,44.53
2019-04-20T02:48:23.500Z,44.52
2019-04-20T02:50:59.265Z,44.90
2019-04-20T02:58:41.957Z,45.06
2019-04-20T03:01:35.899Z,44.95
2019-04-20T03:03:59.770Z,45.03
2019-04-20T03:06:39.999Z,45.08
2019-04-20T03:09:25.607Z,45.14
2019-04-20T03:14:28.012Z,45.31
2019-04-20T03:17:03.305Z,45.37
2019-04-20T03:19:32.801Z,45.63
2019-04-20T03:22:14.418Z,45.86
2019-04-20T03:24:49.587Z,46.19
2019-04-20T03:27:19.717Z,46.34
2019-04-20T03:30:39.513Z,46.33
2019-04-20T03:35:28.600Z,46.89
2019-04-20T03:38:01.560Z,47.48
2019-04-20T03:40:24.498Z,47.87
2019-04-20T03:42:44.801Z,47.76
2019-04-20T03:45:19.963Z,47.79
2019-04-20T03:48:04.447Z,47.96
2019-04-20T03:50:46.758Z,47.89
2019-04-20T03:53:23.085Z,47.87
2019-04-20T03:56:26.833Z,48.25
2019-04-20T03:58:55.173Z,48.14
2019-04-20T04:02:01.688Z,47.92
2019-04-20T04:04:45.571Z,48.17
2019-04-20T04:07:08.047Z,48.15
2019-04-20T04:09:51.139Z,47.99
2019-04-20T04:13:02.959Z,47.60
2019-04-20T04:15:42.157Z,47.44
2019-04-20T04:18:17.161Z,47.39
2019-04-20T04:20:50.013Z,47.10
2019-04-20T04:23:35.736Z,46.61
2019-04-20T04:26:10.368Z,45.90
2019-04-20T04:28:41.097Z,44.93
2019-04-20T04:31:16.559Z,43.74
2019-04-20T04:33:55.824Z,42.54
2019-04-20T04:36:20.794Z,41.17
2019-04-20T04:39:03.698Z,39.58
2019-04-20T04:41:31.690Z,38.35
2019-04-20T04:44:06.072Z,36.39
2019-04-20T04:46:22.681Z,34.42
2019-04-20T04:49:06.802Z,32.50
2019-04-20T04:51:41.685Z,31.02
2019-04-20T04:54:13.823Z,29.37
2019-04-20T04:56:35.940Z,28.12
2019-04-20T04:59:08.622Z,26.57
2019-04-20T05:01:42.074Z,25.44
2019-04-20T05:04:33.931Z,24.17
2019-04-20T05:07:05.005Z,22.43
2019-04-20T05:09:23.757Z,21.35
2019-04-20T05:12:02.839Z,20.80
2019-04-20T05:14:42.336Z,20.02
2019-04-20T05:17:20.644Z,18.91
2019-04-20T05:19:58.347Z,18.02
2019-04-20T05:22:33.637Z,16.79
2019-04-20T05:25:14.211Z,15.67
2019-04-20T05:27:53.498Z,14.88
2019-04-20T05:30:09.859Z,13.98
2019-04-20T05:32:50.365Z,12.75
2019-04-20T05:35:35.423Z,12.20
2019-04-20T05:38:13.298Z,11.36
2019-04-20T05:40:46.149Z,10.78
2019-04-20T05:43:38.726Z,10.27
2019-04-20T05:46:18.189Z,9.32
2019-04-20T05:48:51.589Z,8.83
2019-04-20T05:51:25.504Z,8.29
2019-04-20T05:53:57.051Z,8.19
2019-04-20T05:56:35.833Z,7.50
2019-04-20T05:58:59.613Z,7.24
2019-04-20T06:01:42.347Z,6.62
2019-04-20T06:04:07.589Z,6.34
2019-04-20T06:06:44.651Z,5.80
2019-04-20T06:09:22.716Z,5.23
2019-04-20T06:12:07.576Z,4.76
2019-04-20T06:14:39.366Z,4.66
2019-04-20T06:17:34.558Z,4.20
2019-04-20T06:20:05.250Z,3.92
2019-04-20T06:22:45.705Z,3.51
2019-04-20T06:25:39.072Z,3.33
2019-04-20T06:27:57.151Z,2.85
2019-04-20T06:30:26.260Z,2.50
2019-04-20T06:34:11.375Z,2.33
2019-04-20T06:36:35.359Z,2.03
2019-04-20T06:39:07.974Z,1.92
2019-04-20T06:42:00.138Z,1.74
2019-04-20T06:44:15.052Z,1.34
2019-04-20T06:46:53.665Z,1.00
2019-04-20T06:52:20.366Z,0.62
2019-04-20T06:55:08.751Z,0.37
2019-04-20T07:00:17.997Z,0.09
2019-04-20T07:03:07.960Z,0.00
2019-04-20T07:05:27.378Z,0.00
2019-04-20T07:08:16.710Z,0.00
2019-04-20T07:10:37.615Z,0.00
2019-04-20T07:13:03.669Z,0.00
2019-04-20T07:15:56.960Z,0.00
2019-04-20T07:18:42.636Z,0.00
2019-04-20T07:21:35.662Z,0.00
2019-04-20T07:24:03.687Z,0.00
2019-04-20T07:26:32.476Z,0.00
2019-04-20T07:29:13.451Z,0.00
2019-04-20T07:31:29.320Z,0.00
2019-04-20T07:34:10.513Z,0.00
2019-04-20T07:36:45.820Z,0.00
2019-04-20T07:39:26.611Z,0.00
2019-04-20T07:41:57.227Z,0.00
2019-04-20T07:44:28.100Z,0.00
2019-04-20T07:47:01.638Z,0.00
2019-04-20T07:49:28.986Z,0.00
2019-04-20T07:51:46.070Z,0.00
2019-04-20T07:54:50.684Z,0.00
2019-04-20T07:57:10.271Z,0.00
2019-04-20T07:59:39.707Z,0.00
2019-04-20T08:02:46.933Z,0.00
2019-04-20T08:05:17.037Z,0.00
2019-04-20T08:07:45.160Z,0.00
2019-04-20T08:10:25.119Z,0.00
2019-04-20T08:13:09.450Z,0.00
2019-04-20T08:15:58.450Z,0.00
2019-04-20T08:18:13.685Z,0.00
2019-04-20T08:20:48.929Z,0.00
2019-04-20T08:23:23.245Z,0.00
2019-04-20T08:25:47.409Z,0.00
2019-04-20T08:28:34.904Z,0.00
2019-04-20T08:31:29.761Z,0.00
2019-04-20T08:34:31.230Z,0.00
2019-04-20T08:36:47.793Z,0.00
2019-04-20T08:39:30.488Z,0.00
2019-04-20T08:41:55.986Z,0.00
2019-04-20T08:44:47.059Z,0.00
2019-04-20T08:49:35.054Z,0.00
2019-04-20T08:52:31.908Z,0.00
2019-04-20T08:54:37.888Z,0.00
2019-04-20T08:56:59.924Z,0.00
2019-04-20T08:59:33.203Z,0.00
2019-04-20T09:02:09.868Z,0.00
2019-04-20T09:04:45.086Z,0.00
2019-04-20T09:07:17.865Z,0.00
2019-04-20T09:10:12.327Z,0.00
2019-04-20T09:12:36.936Z,0.00
2019-04-20T09:14:53.073Z,0.00
2019-04-20T09:17:46.574Z,0.00
2019-04-20T09:20:27.011Z,0.00
2019-04-20T09:23:14.568Z,0.00
2019-04-20T09:28:27.351Z,0.00
2019-04-20T09:31:11.864Z,0.00
2019-04-20T09:34:07.041Z,0.00
2019-04-20T09:36:40.944Z,0.00
2019-04-20T09:39:26.344Z,0.00
2019-04-20T09:42:11.245Z,0.00
2019-04-20T09:44:48.774Z,0.00
2019-04-20T09:47:23.479Z,0.00
2019-04-20T09:50:01.463Z,0.00
2019-04-20T09:52:37.755Z,0.00
2019-04-20T09:55:10.686Z,0.00
2019-04-20T09:57:51.263Z,0.00
2019-04-20T10:00:23.932Z,0.00
2019-04-20T10:02:41.694Z,0.00
2019-04-20T10:05:15.603Z,0.00
2019-04-20T10:07:55.973Z,0.00
2019-04-20T10:10:31.327Z,0.00
2019-04-20T10:12:56.289Z,0.00
2019-04-20T10:15:31.032Z,0.00
2019-04-20T10:18:02.052Z,0.00
2019-04-20T10:20:37.912Z,0.00
2019-04-20T10:23:08.751Z,0.00
2019-04-20T10:25:42.505Z,0.00
2019-04-20T10:28:15.874Z,0.00
2019-04-20T10:30:48.404Z,0.00
2019-04-20T10:33:21.696Z,0.00
2019-04-20T10:35:53.997Z,0.00
2019-04-20T10:38:33.961Z,0.00
2019-04-20T10:41:13.013Z,0.00
2019-04-20T10:43:38.749Z,0.00
2019-04-20T10:46:11.118Z,0.00
2019-04-20T10:48:47.936Z,0.00
2019-04-20T10:51:17.731Z,0.00
2019-04-20T10:53:50.606Z,0.00
2019-04-20T10:56:23.275Z,0.00
2019-04-20T10:58:55.875Z,0.00
2019-04-20T11:01:27.983Z,0.00
2019-04-20T11:04:00.767Z,0.00
2019-04-20T11:06:32.913Z,0.00
2019-04-20T11:09:07.141Z,0.00
2019-04-20T11:11:39.095Z,0.00
2019-04-20T11:14:19.070Z,0.00
2019-04-20T11:16:44.937Z,0.00
2019-04-20T11:19:16.830Z,0.00
2019-04-20T11:21:50.175Z,0.00
2019-04-20T11:24:22.454Z,0.00
2019-04-20T11:26:54.601Z,0.00
2019-04-20T11:29:26.735Z,0.00
2019-04-20T11:31:59.473Z,0.00
2019-04-20T11:34:35.355Z,0.00
2019-04-20T11:37:06.904Z,0.45
2019-04-20T11:39:39.188Z,0.99
2019-04-20T11:42:11.857Z,3.46
2019-04-20T11:44:44.755Z,3.78
2019-04-20T11:47:16.919Z,5.00
2019-04-20T11:49:49.384Z,4.74
2019-04-20T11:52:23.268Z,5.96
2019-04-20T11:54:55.391Z,7.05
2019-04-20T11:57:27.399Z,7.41
2019-04-20T12:00:01.121Z,9.51
2019-04-20T12:02:54.177Z,9.56
2019-04-20T12:05:34.720Z,9.88
2019-04-20T12:08:07.008Z,8.29
2019-04-20T12:10:39.391Z,9.86
2019-04-20T12:13:14.503Z,9.94
2019-04-20T12:15:47.543Z,10.28
2019-04-20T12:18:21.515Z,10.31
2019-04-20T12:20:54.708Z,9.76
2019-04-20T12:23:26.934Z,11.01
2019-04-20T12:25:59.799Z,9.84
2019-04-20T12:28:31.866Z,10.54
2019-04-20T12:31:11.410Z,11.68
2019-04-20T12:33:37.576Z,10.38
2019-04-20T12:36:10.659Z,11.05
2019-04-20T12:38:43.372Z,10.47
2019-04-20T12:41:16.172Z,11.15
2019-04-20T12:43:48.285Z,11.67
2019-04-20T12:46:22.999Z,11.41
2019-04-20T12:48:55.589Z,11.66
2019-04-20T12:51:33.916Z,11.49
2019-04-20T12:54:02.587Z,11.15
2019-04-20T12:56:38.419Z,11.75
2019-04-20T12:59:11.632Z,11.62
2019-04-20T13:01:43.858Z,11.23
2019-04-20T13:04:16.500Z,10.57
2019-04-20T13:06:49.906Z,10.61
2019-04-20T13:09:23.555Z,10.13
2019-04-20T13:12:15.592Z,10.12
2019-04-20T13:15:20.314Z,10.99
2019-04-20T13:17:54.223Z,11.03
2019-04-20T13:20:26.292Z,11.45
2019-04-20T13:23:02.604Z,12.25
2019-04-20T13:25:35.036Z,12.45
2019-04-20T13:28:07.400Z,12.81
2019-04-20T13:30:40.211Z,13.40
2019-04-20T13:33:14.188Z,13.35
2019-04-20T13:35:46.404Z,13.05
2019-04-20T13:38:18.463Z,12.51
2019-04-20T13:40:51.477Z,12.05
2019-04-20T13:43:26.284Z,12.75
2019-04-20T13:45:58.260Z,12.84
2019-04-20T13:48:31.013Z,12.09
2019-04-20T13:51:04.156Z,12.98
2019-04-20T13:53:37.202Z,12.51
2019-04-20T13:56:10.055Z,12.88
2019-04-20T13:59:16.351Z,11.96
2019-04-20T14:01:53.724Z,12.17
2019-04-20T14:04:34.747Z,11.71
2019-04-20T14:07:06.857Z,12.88
2019-04-20T14:09:39.494Z,11.91
2019-04-20T14:12:22.018Z,12.91
2019-04-20T14:14:45.333Z,12.97
2019-04-20T14:17:19.199Z,12.89
2019-04-20T14:19:52.905Z,13.19
2019-04-20T14:22:25.066Z,13.10
2019-04-20T14:24:57.380Z,12.67
2019-04-20T14:27:30.741Z,12.99
2019-04-20T14:30:03.463Z,12.57
2019-04-20T14:32:36.805Z,12.53
2019-04-20T14:35:09.298Z,13.25
2019-04-20T14:37:41.650Z,13.05
2019-04-20T14:40:14.559Z,12.48
2019-04-20T14:42:50.359Z,12.80
2019-04-20T14:45:20.906Z,12.59
2019-04-20T14:47:53.954Z,12.11
2019-04-20T14:50:27.519Z,11.21
2019-04-20T14:52:59.870Z,11.20
2019-04-20T14:55:33.334Z,11.37
2019-04-20T14:58:11.137Z,11.34
2019-04-20T15:00:53.050Z,11.40
2019-04-20T15:03:30.582Z,11.49
2019-04-20T15:06:03.391Z,12.22
2019-04-20T15:08:36.758Z,11.88
2019-04-20T15:11:09.293Z,11.27
2019-04-20T15:13:42.568Z,11.69
2019-04-20T15:16:15.114Z,12.76
2019-04-20T15:18:52.990Z,13.55
2019-04-20T15:21:27.274Z,13.14
2019-04-20T15:24:01.724Z,12.62
2019-04-20T15:26:34.300Z,14.78
2019-04-20T15:29:06.645Z,12.69
2019-04-20T15:31:38.739Z,12.83
2019-04-20T15:34:11.090Z,14.17
2019-04-20T15:36:44.299Z,13.45
2019-04-20T15:39:16.897Z,13.61
2019-04-20T15:41:49.566Z,13.99
2019-04-20T15:44:21.667Z,13.88
2019-04-20T15:46:55.162Z,14.39
2019-04-20T15:49:28.377Z,14.13
2019-04-20T15:52:01.743Z,14.28
2019-04-20T15:54:34.089Z,13.76
2019-04-20T15:57:12.738Z,12.33
2019-04-20T15:59:40.216Z,13.07
2019-04-20T16:02:17.828Z,12.32
2019-04-20T16:04:54.414Z,12.58
2019-04-20T16:07:26.424Z,11.65
2019-04-20T16:09:59.103Z,14.27
2019-04-20T16:12:31.273Z,11.79
2019-04-20T16:15:03.961Z,11.68
2019-04-20T16:17:41.880Z,12.02
2019-04-20T16:20:15.691Z,11.78
2019-04-20T16:22:45.123Z,13.32
2019-04-20T16:25:43.677Z,12.31
2019-04-20T16:28:17.270Z,13.93
2019-04-20T16:30:49.797Z,14.01
2019-04-20T16:33:21.992Z,13.94
2019-04-20T16:35:54.314Z,14.60
2019-04-20T16:38:30.134Z,14.90
2019-04-20T16:41:00.421Z,15.19
2019-04-20T16:43:36.488Z,15.57
2019-04-20T16:46:06.528Z,17.27
2019-04-20T16:48:40.038Z,16.42
2019-04-20T16:51:13.895Z,15.45
2019-04-20T16:53:45.925Z,16.35
2019-04-20T16:56:21.976Z,17.17
2019-04-20T16:58:55.957Z,16.24
2019-04-20T17:01:27.522Z,17.99
2019-04-20T17:04:06.760Z,17.29
2019-04-20T17:06:35.908Z,16.79
2019-04-20T17:09:10.067Z,17.13
2019-04-20T17:11:43.764Z,17.28
2019-04-20T17:14:16.952Z,17.21
2019-04-20T17:16:49.386Z,17.43
2019-04-20T17:19:21.897Z,18.35
2019-04-20T17:21:57.102Z,18.60
2019-04-20T17:24:29.314Z,18.70
2019-04-20T17:27:33.033Z,18.54
2019-04-20T17:30:27.409Z,19.02
2019-04-20T17:33:04.206Z,20.12
2019-04-20T17:35:47.596Z,20.14
2019-04-20T17:38:10.857Z,19.33
2019-04-20T17:41:01.563Z,19.81
2019-04-20T17:43:25.209Z,20.13
2019-04-20T17:46:00.671Z,19.72
2019-04-20T17:48:36.052Z,19.42
2019-04-20T17:51:16.804Z,20.16
2019-04-20T17:53:58.535Z,19.97
2019-04-20T17:56:28.609Z,19.85
2019-04-20T17:59:01.786Z,21.73
2019-04-20T18:02:11.852Z,22.53
2019-04-20T18:05:06.563Z,20.38
2019-04-20T18:07:35.430Z,19.84
2019-04-20T18:10:08.109Z,19.70
2019-04-20T18:12:26.751Z,19.88
2019-04-20T18:15:06.171Z,20.43
2019-04-20T18:18:02.701Z,20.13
2019-04-20T18:20:25.049Z,19.93
2019-04-20T18:22:58.807Z,20.41
2019-04-20T18:26:01.532Z,20.24
2019-04-20T18:28:20.938Z,20.46
2019-04-20T18:30:52.517Z,20.18
2019-04-20T18:33:24.977Z,20.78
2019-04-20T18:35:56.302Z,20.47
2019-04-20T18:38:30.544Z,20.58
2019-04-20T18:41:07.017Z,20.40
2019-04-20T18:43:43.900Z,20.72
2019-04-20T18:46:26.023Z,20.55
2019-04-20T18:49:02.888Z,20.70
2019-04-20T18:51:17.674Z,21.04
2019-04-20T18:53:51.831Z,21.38
2019-04-20T18:56:31.354Z,21.54
2019-04-20T18:58:58.880Z,21.76
2019-04-20T19:01:36.049Z,22.11
2019-04-20T19:04:05.748Z,22.23
2019-04-20T19:06:38.147Z,22.46
2019-04-20T19:09:16.719Z,22.49
2019-04-20T19:11:50.883Z,22.90
2019-04-20T19:14:40.799Z,23.53
2019-04-20T19:17:45.114Z,23.68
2019-04-20T19:20:16.017Z,23.58
2019-04-20T19:22:48.297Z,24.39
2019-04-20T19:25:27.606Z,24.44
2019-04-20T19:27:57.546Z,24.60
2019-04-20T19:30:37.459Z,24.56
2019-04-20T19:33:19.111Z,25.03
2019-04-20T19:35:45.421Z,25.30
2019-04-20T19:38:20.323Z,25.48
2019-04-20T19:40:55.878Z,25.83
2019-04-20T19:43:28.031Z,26.19
2019-04-20T19:46:35.607Z,26.17
2019-04-20T19:48:39.324Z,26.27
2019-04-20T19:51:25.625Z,26.32
2019-04-20T19:53:53.127Z,26.76
2019-04-20T19:56:28.124Z,27.39
2019-04-20T19:58:56.379Z,27.00
2019-04-20T20:01:17.648Z,27.10
2019-04-20T20:03:56.557Z,27.17
2019-04-20T20:06:33.246Z,27.23
2019-04-20T20:09:03.720Z,27.75
2019-04-20T20:11:35.342Z,27.56
2019-04-20T20:14:08.239Z,27.67
2019-04-20T20:17:01.526Z,27.97
2019-04-20T20:19:29.534Z,28.09
2019-04-20T20:22:00.378Z,28.19
2019-04-20T20:24:21.449Z,28.40
2019-04-20T20:27:00.405Z,28.78
2019-04-20T20:29:34.144Z,29.33
2019-04-20T20:32:15.468Z,29.32
2019-04-20T20:34:40.475Z,29.77
2019-04-20T20:37:14.090Z,29.62
2019-04-20T20:39:54.783Z,30.08
2019-04-20T20:42:29.383Z,30.08
2019-04-20T20:44:57.523Z,30.25
2019-04-20T20:47:48.528Z,30.34
2019-04-20T20:50:30.026Z,30.45
2019-04-20T20:52:53.655Z,31.00
2019-04-20T20:55:22.141Z,31.21
2019-04-20T20:57:53.645Z,31.10
2019-04-20T21:00:28.240Z,31.48
2019-04-20T21:02:58.160Z,31.96
2019-04-20T21:05:23.764Z,31.87
2019-04-20T21:07:55.853Z,31.74
2019-04-20T21:10:31.916Z,32.01
2019-04-20T21:13:06.555Z,31.94
2019-04-20T21:15:35.512Z,31.82
2019-04-20T21:18:29.330Z,32.00
2019-04-20T21:21:00.039Z,32.25
2019-04-20T21:23:31.688Z,32.27
2019-04-20T21:26:12.760Z,32.37
2019-04-20T21:28:43.765Z,32.60
2019-04-20T21:31:21.683Z,33.06
2019-04-20T21:33:50.968Z,33.46
2019-04-20T21:36:27.913Z,33.20
2019-04-20T21:38:58.124Z,33.45
2019-04-20T21:41:30.983Z,33.37
2019-04-20T21:44:05.533Z,33.37
2019-04-20T21:46:43.749Z,33.50
2019-04-20T21:49:27.412Z,33.84
2019-04-20T21:51:54.575Z,33.84
2019-04-20T21:54:18.494Z,33.78
2019-04-20T21:56:57.514Z,34.18
2019-04-20T21:59:32.135Z,34.19
2019-04-20T22:02:10.043Z,34.22
2019-04-20T22:04:33.351Z,34.53
2019-04-20T22:07:06.236Z,34.38
2019-04-20T22:09:41.374Z,34.53
2019-04-20T22:12:12.126Z,34.67
2019-04-20T22:14:50.936Z,34.78
2019-04-20T22:17:25.955Z,35.00
2019-04-20T22:20:06.055Z,35.96
2019-04-20T22:22:42.406Z,36.41
2019-04-20T22:25:16.221Z,36.61
2019-04-20T22:27:35.073Z,36.62
2019-04-20T22:30:08.305Z,36.78
2019-04-20T22:32:44.332Z,37.19
2019-04-20T22:35:16.252Z,36.91
2019-04-20T22:38:07.061Z,36.58
2019-04-20T22:40:36.695Z,36.70
2019-04-20T22:43:10.264Z,36.69
2019-04-20T22:45:46.739Z,36.60
2019-04-20T22:48:18.015Z,36.85
2019-04-20T22:51:11.317Z,37.03
2019-04-20T22:53:37.618Z,37.15
2019-04-20T22:56:18.632Z,37.41
2019-04-20T22:58:45.538Z,37.34
2019-04-20T23:01:17.386Z,37.45
2019-04-20T23:03:38.907Z,37.57
2019-04-20T23:06:12.496Z,38.47
2019-04-20T23:08:47.290Z,38.19
2019-04-20T23:11:26.470Z,38.17
2019-04-20T23:13:53.365Z,38.90
2019-04-20T23:16:28.791Z,39.33
2019-04-20T23:19:00.318Z,39.41
2019-04-20T23:21:32.409Z,39.12
2019-04-20T23:24:09.494Z,38.88
2019-04-20T23:26:42.131Z,38.97
2019-04-20T23:29:13.247Z,38.88
2019-04-20T23:31:52.163Z,39.72
2019-04-20T23:34:23.179Z,39.40
2019-04-20T23:36:52.900Z,39.39
2019-04-20T23:39:33.994Z,40.28
2019-04-20T23:42:03.777Z,40.59
2019-04-20T23:44:52.071Z,40.53
2019-04-20T23:47:47.847Z,40.23
2019-04-20T23:50:38.223Z,40.72
2019-04-20T23:53:10.115Z,40.84
2019-04-20T23:55:23.884Z,41.08
2019-04-20T23:57:59.469Z,41.14
